Chryston, United Kingdom
Current Conditions -  °F | °C
As of 10:20 PM on Friday 24 Oct 2014 (Local Time) from EGPF Reporting Station
Few Clouds Few Clouds  
Wind Chill: 50°   Ceiling: Unl
Heat Index: 50°   Visibility: 6mi
Dew Point: 45°   Wind: 10mph
Humidity: 82%   Direction: 210°SSW
Pressure: 29.74"   Gusts: NA
Location:  55.9°N, 4.11°W
Report Text: EGPF 242120Z AUTO 21009KT 9999 FEW020 10/07 Q1007
Loading
Personal Weather Stations






























Interactive Weather Map
Tropical Storm Tracking
New forecast layout! Learn more

10-Day Weather Forecast

Advertisements
Track Severe Weather on mobile